Data for 08/14/2015

Time Sea-Level Adjusted Pressure Absolute Pressure Temperature Relative Humidity Dew Point   
(mb) (inHg) (mb) (inHg) (C) (F) (%) (C) (F)
00:05 1022 30.18 851 25.13 21.7 71.1 37 6.6 43.8
00:10 1022 30.18 851 25.13 21.6 71 36 6.2 43.2
00:15 1022 30.18 851 25.13 21.6 70.8 37 6.4 43.5
00:20 1022 30.18 851 25.13 21.5 70.8 36 6 42.7
00:25 1022 30.18 851 25.13 21.6 70.9 36 5.9 42.6
00:30 1022 30.18 851 25.13 21.7 71.1 35 5.9 42.7
00:35 1022 30.18 851 25.13 21.7 71.1 35 5.9 42.6
00:40 1022 30.18 851 25.13 21.7 71.1 35 6 42.7
00:45 1022 30.18 851 25.13 21.6 70.9 36 6 42.8
00:50 1022 30.18 851 25.13 21.6 70.9 35 5.8 42.5
00:55 1022 30.18 851 25.13 21.5 70.7 36 6 42.9
01:00 1022 30.18 851 25.13 21.3 70.4 37 6.2 43.2
01:05 1022 30.18 851 25.13 21.2 70.1 37 6.1 43
01:10 1022 30.18 851 25.13 21.2 70.1 37 6.2 43.1
01:15 1022 30.18 851 25.13 21.1 70 38 6.3 43.4
01:20 1022 30.18 851 25.13 21.2 70.1 36 5.6 42.1
01:25 1022 30.18 851 25.13 21.4 70.5 37 6.1 43.1
01:30 1022 30.18 851 25.13 21.3 70.3 37 6 42.9
01:35 1022 30.18 851 25.13 21.2 70.1 38 6.4 43.6
01:40 1022 30.18 851 25.13 20.9 69.6 38 6.4 43.5
01:45 1022 30.18 851 25.13 20.7 69.3 39 6.5 43.7
01:50 1022 30.18 851 25.13 20.7 69.3 39 6.3 43.4
01:55 1022 30.18 851 25.13 20.7 69.2 39 6.4 43.5
02:00 1022 30.18 851 25.13 20.7 69.3 39 6.4 43.5
02:05 1022 30.18 851 25.13 20.7 69.3 38 6.2 43.2
02:10 1022 30.18 851 25.13 20.9 69.6 37 5.9 42.6
02:15 1022 30.18 851 25.13 21.1 69.9 38 6.3 43.3
02:20 1021 30.15 851 25.13 21 69.7 38 6.1 43
02:25 1021 30.15 851 25.13 20.9 69.6 39 6.4 43.6
02:30 1021 30.15 851 25.13 20.8 69.4 37 5.8 42.4
02:35 1021 30.15 851 25.13 21 69.9 38 6.3 43.4
02:40 1021 30.15 851 25.13 20.8 69.4 38 6.3 43.4
02:45 1022 30.18 851 25.13 20.8 69.5 38 6.3 43.3
02:50 1022 30.18 851 25.13 21.1 69.9 38 6.2 43.2
02:55 1022 30.18 851 25.13 21 69.8 38 6.4 43.6
03:00 1022 30.18 851 25.13 20.8 69.4 39 6.6 43.8
03:05 1022 30.18 851 25.13 20.9 69.6 39 6.6 43.9
03:10 1022 30.18 851 25.13 20.7 69.2 39 6.2 43.2
03:15 1022 30.18 851 25.13 20.5 68.8 40 6.7 44
03:20 1022 30.18 851 25.13 20.2 68.4 41 6.7 44
03:25 1022 30.18 851 25.13 20.2 68.4 41 6.5 43.8
03:30 1022 30.18 851 25.13 20.2 68.3 40 6.4 43.5
03:35 1022 30.18 851 25.13 20.4 68.7 39 6 42.8
03:40 1022 30.18 851 25.13 20.9 69.6 37 6 42.8
03:45 1022 30.18 851 25.13 21.3 70.4 36 5.8 42.4
03:50 1022 30.18 851 25.13 21.4 70.6 35 5.5 41.9
03:55 1022 30.18 851 25.13 21.5 70.7 39 7.1 44.8
04:00 1022 30.18 851 25.13 21.5 70.6 36 6 42.7
04:05 1022 30.18 851 25.13 21.1 70 37 6 42.9
04:10 1022 30.18 851 25.13 21.1 69.9 38 6.2 43.2
04:15 1022 30.18 851 25.13 20.8 69.5 40 6.8 44.3
04:20 1022 30.18 851 25.13 20.3 68.6 40 6.4 43.6
04:25 1022 30.18 851 25.13 20.4 68.7 40 6.4 43.5
04:30 1022 30.18 851 25.13 20.5 68.9 38 6.1 42.9
04:35 1022 30.18 851 25.13 21 69.8 37 6.1 43
04:40 1022 30.18 851 25.13 21.1 69.9 37 5.9 42.6
04:45 1022 30.18 851 25.13 21.2 70.1 36 5.9 42.6
04:50 1022 30.18 851 25.13 21.2 70.1 38 6.3 43.3
04:55 1022 30.18 851 25.13 21 69.8 37 6.1 42.9
05:00 1022 30.18 851 25.13 20.9 69.6 39 6.5 43.7
05:05 1022 30.18 851 25.13 20.7 69.3 38 6.2 43.1
05:10 1022 30.18 851 25.13 20.7 69.3 38 6.1 43
05:15 1022 30.18 851 25.13 21.1 69.9 37 5.8 42.4
05:20 1022 30.18 851 25.13 21.3 70.3 36 5.9 42.6
05:25 1022 30.18 851 25.13 20.8 69.5 41 7.3 45.1
05:30 1022 30.18 851 25.13 20.1 68.2 41 6.7 44.1
05:35 1022 30.18 851 25.13 20.3 68.5 40 6.3 43.3
05:40 1022 30.18 851 25.13 20.6 69 38 6.1 42.9
05:45 1022 30.18 851 25.13 20.7 69.3 39 6.6 43.8
05:50 1022 30.18 851 25.13 20.4 68.6 42 7.2 45
05:55 1022 30.18 851 25.13 19.7 67.5 44 7.2 45
06:00 1022 30.18 851 25.13 19.5 67.1 49 8.6 47.6
06:05 1022 30.18 851 25.13 19.4 66.8 46 7.4 45.4
06:10 1022 30.18 851 25.13 19.5 67.1 43 6.6 44
06:15 1022 30.18 851 25.13 19.9 67.9 42 6.8 44.2
06:20 1022 30.18 851 25.13 20.1 68.2 43 7.3 45.2
06:25 1022 30.18 851 25.13 20 68 43 7.2 45
06:30 1022 30.18 851 25.13 20 68 43 7.3 45.2
06:35 1022 30.18 851 25.13 20 68 43 7.2 45
06:40 1022 30.18 851 25.13 20.3 68.5 41 6.7 44.1
06:45 1022 30.18 851 25.13 20.9 69.7 40 6.8 44.3
06:50 1022 30.18 851 25.13 21 69.7 40 7 44.6
06:55 1022 30.18 851 25.13 20.8 69.5 41 7.1 44.9
07:00 1022 30.18 851 25.13 20.8 69.4 41 7.3 45.1
07:05 1022 30.18 851 25.13 21 69.7 41 7.2 45
07:10 1022 30.18 851 25.13 21.3 70.4 39 7.1 44.7
07:15 1022 30.18 851 25.13 21.6 70.8 40 7.6 45.6
07:20 1022 30.18 851 25.13 21.6 70.9 41 7.9 46.3
07:25 1022 30.18 851 25.13 21.5 70.8 40 7.5 45.5
07:30 1022 30.18 851 25.13 21.9 71.5 39 7.6 45.7
07:35 1022 30.18 851 25.13 22 71.7 41 8.3 47
07:40 1022 30.18 851 25.13 22 71.6 40 7.9 46.1
07:45 1022 30.18 851 25.13 22.1 71.8 40 8 46.4
07:50 1022 30.18 851 25.13 22.3 72.1 39 8.1 46.5
07:55 1022 30.18 851 25.13 22.4 72.2 38 7.6 45.6
08:00 1022 30.18 851 25.13 22.6 72.7 38 7.7 45.9
08:05 1022 30.18 851 25.13 22.9 73.2 38 8 46.4
08:10 1022 30.18 851 25.13 23.3 73.9 38 8.3 46.9
08:15 1022 30.18 851 25.13 23.6 74.4 35 7.5 45.5
08:20 1022 30.18 851 25.13 24.2 75.6 36 8.2 46.8
08:25 1022 30.18 851 25.13 25 76.9 34 8.1 46.7
08:30 1022 30.18 852 25.16 25 77.1 36 9.3 48.7
08:35 1022 30.18 852 25.16 25.3 77.5 34 8.5 47.3
08:40 1022 30.18 851 25.13 25.7 78.3 36 9.7 49.5
08:45 1022 30.18 852 25.16 25.6 78.1 34 8.9 48.1
08:50 1022 30.18 852 25.16 25.7 78.2 35 9.2 48.5
08:55 1023 30.21 852 25.16 25.5 78 36 9.7 49.5
09:00 1023 30.21 852 25.16 25.1 77.2 34 8.5 47.3
09:05 1022 30.18 852 25.16 25 76.9 40 10.7 51.3
09:10 1022 30.18 852 25.16 24.1 75.3 43 10.8 51.4
09:15 1022 30.18 852 25.16 23.6 74.5 47 11.8 53.3
09:20 1022 30.18 852 25.16 22.5 72.4 50 11.7 53
09:25 1022 30.18 852 25.16 21.7 71.1 49 10.8 51.4
09:30 1022 30.18 851 25.13 22.1 71.7 47 10.4 50.7
09:35 1022 30.18 851 25.13 22.6 72.7 48 11.2 52.1
09:40 1022 30.18 851 25.13 23.1 73.5 48 11.8 53.2
09:45 1022 30.18 851 25.13 22.9 73.1 46 10.9 51.6
09:50 1022 30.18 851 25.13 22.8 73.1 47 11.1 51.9
09:55 1022 30.18 851 25.13 23.1 73.5 48 11.5 52.7
10:00 1022 30.18 851 25.13 23.2 73.7 48 11.6 52.9
10:05 1022 30.18 851 25.13 23.6 74.4 46 11.4 52.4
10:10 1022 30.18 851 25.13 23.9 75.1 44 11.3 52.3
10:15 1022 30.18 851 25.13 24.2 75.6 42 10.8 51.5
10:20 1022 30.18 851 25.13 24.6 76.2 43 11.2 52.2
10:25 1022 30.18 851 25.13 24.9 76.8 42 11.3 52.4
10:30 1022 30.18 851 25.13 25.9 78.6 39 11.1 52
10:35 1022 30.18 851 25.13 26.2 79.2 39 11.5 52.7
10:40 1022 30.18 851 25.13 26 78.8 37 10.4 50.7
10:45 1022 30.18 851 25.13 26.4 79.6 36 10.6 51
10:50 1022 30.18 851 25.13 26.8 80.3 34 9.9 49.7
10:55 1021 30.15 851 25.13 26.9 80.3 36 10.8 51.5
11:00 1021 30.15 851 25.13 27 80.6 37 11.3 52.4
11:05 1021 30.15 850 25.1 27.3 81.1 35 10.9 51.6
11:10 1021 30.15 850 25.1 27.4 81.2 32 9.5 49.2
11:15 1021 30.15 850 25.1 27.3 81.2 34 10.3 50.6
11:20 1021 30.15 850 25.1 27.6 81.7 31 9.4 48.9
11:25 1021 30.15 850 25.1 28.4 83 29 9.1 48.4
11:30 1021 30.15 850 25.1 28.9 83.9 30 9.9 49.9
11:35 1021 30.15 850 25.1 29.1 84.4 28 9.1 48.3
11:40 1021 30.15 850 25.1 29.1 84.4 28 8.9 48.1
11:45 1021 30.15 850 25.1 29.5 85.1 26 8.6 47.5
11:50 1021 30.15 850 25.1 29.5 85.2 27 9.2 48.5
11:55 1021 30.15 850 25.1 29.9 85.8 27 9.3 48.8
12:00 1020 30.12 850 25.1 30.1 86.1 27 9.4 49
12:05 1020 30.12 850 25.1 29.9 85.8 26 8.7 47.7
12:10 1020 30.12 850 25.1 30.3 86.5 27 9.3 48.8
12:15 1020 30.12 849 25.07 29.8 85.7 26 8.6 47.5
12:20 1020 30.12 849 25.07 30.2 86.4 25 8.1 46.6
12:25 1020 30.12 849 25.07 30.9 87.5 23 7.4 45.3
12:30 1020 30.12 849 25.07 32 89.6 24 9.1 48.4
12:35 1020 30.12 849 25.07 32.4 90.4 21 7.6 45.7
12:40 1020 30.12 849 25.07 32.1 89.7 22 7.8 46
12:45 1020 30.12 849 25.07 31.5 88.7 24 8.9 48.1
12:50 1020 30.12 849 25.07 31 87.8 23 7.9 46.2
12:55 1020 30.12 849 25.07 30.9 87.7 23 7.8 46.1
13:00 1020 30.12 849 25.07 30.9 87.7 24 8.6 47.5
13:05 1020 30.12 849 25.07 31 87.7 20 5.8 42.5
13:10 1020 30.12 849 25.07 31.8 89.3 20 6.8 44.3
13:15 1020 30.12 849 25.07 32.1 89.8 20 6.4 43.6
13:20 1020 30.12 849 25.07 32.3 90.2 20 7 44.7
13:25 1020 30.12 849 25.07 32.6 90.6 19 6.7 44
13:30 1019 30.09 849 25.07 32.4 90.2 21 7.6 45.8
13:35 1019 30.09 848 25.04 31.8 89.2 20 6.7 44
13:40 1019 30.09 848 25.04 31.4 88.5 22 7.7 45.9
13:45 1019 30.09 848 25.04 31.4 88.4 20 6.4 43.4
13:50 1019 30.09 848 25.04 31.5 88.8 21 6.9 44.4
13:55 1019 30.09 848 25.04 31.6 88.9 22 7.4 45.3
14:00 1019 30.09 848 25.04 31.9 89.5 20 6.9 44.4
14:05 1019 30.09 848 25.04 31.7 89.1 20 6.2 43.2
14:10 1019 30.09 848 25.04 32.2 90 20 6.8 44.3
14:15 1019 30.09 848 25.04 31.6 88.9 21 6.8 44.2
14:20 1019 30.09 848 25.04 31.6 88.9 21 6.9 44.5
14:25 1019 30.09 848 25.04 32.1 89.8 20 6.9 44.4
14:30 1019 30.09 848 25.04 32 89.5 20 6.5 43.7
14:35 1019 30.09 848 25.04 31.9 89.5 20 6.3 43.4
14:40 1019 30.09 848 25.04 31.7 89 19 6 42.8
14:45 1018 30.06 848 25.04 31.8 89.3 20 6.2 43.1
14:50 1018 30.06 848 25.04 32.1 89.7 19 6 42.8
14:55 1018 30.06 847 25.01 32 89.6 21 7.1 44.7
15:00 1018 30.06 847 25.01 32.4 90.3 19 6 42.9
15:05 1018 30.06 847 25.01 32.7 90.8 18 6 42.9
15:10 1018 30.06 847 25.01 32.5 90.4 18 5.9 42.6
15:15 1018 30.06 847 25.01 32.8 91 19 6.4 43.6
15:20 1018 30.06 847 25.01 32.9 91.1 19 6.3 43.3
15:25 1018 30.06 847 25.01 32.6 90.7 18 5.9 42.7
15:30 1018 30.06 847 25.01 32.8 91.1 19 6.4 43.6
15:35 1018 30.06 847 25.01 33.1 91.5 20 7.6 45.7
15:40 1018 30.06 847 25.01 32.8 91.1 20 7 44.6
15:45 1017 30.03 847 25.01 32.6 90.7 20 6.9 44.4
15:50 1017 30.03 847 25.01 32.7 90.9 19 6.4 43.5
15:55 1017 30.03 847 25.01 32.7 90.9 19 6.3 43.4
16:00 1017 30.03 846 24.98 32.9 91.2 18 5.8 42.5
16:05 1017 30.03 846 24.98 32.9 91.2 19 6.9 44.4
16:10 1017 30.03 846 24.98 32.9 91.3 19 6.4 43.6
16:15 1017 30.03 846 24.98 33.1 91.6 18 5.7 42.2
16:20 1017 30.03 846 24.98 32.9 91.2 18 5.7 42.2
16:25 1017 30.03 846 24.98 32.6 90.8 19 6.6 43.8
16:30 1017 30.03 846 24.98 32.2 90 20 6.5 43.8
16:35 1017 30.03 846 24.98 32 89.7 21 7.2 44.9
16:40 1017 30.03 846 24.98 31.7 89.1 20 6.6 43.9
16:45 1017 30.03 846 24.98 31.6 88.9 20 6.4 43.5
16:50 1017 30.03 846 24.98 31.7 89 19 6 42.7
16:55 1017 30.03 846 24.98 32.1 89.7 21 7.3 45.1
17:00 1017 30.03 846 24.98 32.3 90.1 19 6.2 43.1
17:05 1017 30.03 846 24.98 32.1 89.8 21 7.1 44.8
17:10 1017 30.03 846 24.98 32.2 89.9 20 7 44.7
17:15 1017 30.03 846 24.98 32 89.6 22 7.7 45.9
17:20 1017 30.03 846 24.98 31.5 88.7 22 7.4 45.3
17:25 1017 30.03 846 24.98 31.1 88 22 7.2 44.9
17:30 1017 30.03 846 24.98 31.1 88 22 7.3 45.1
17:35 1017 30.03 846 24.98 31.2 88.1 22 7.2 45
17:40 1017 30.03 846 24.98 31.4 88.5 21 7.1 44.8
17:45 1017 30.03 846 24.98 31.5 88.6 21 7 44.6
17:50 1017 30.03 846 24.98 31.1 88 22 7 44.5
17:55 1017 30.03 846 24.98 30.6 87.1 22 7.1 44.8
18:00 1017 30.03 846 24.98 30.5 86.9 22 6.8 44.2
18:05 1017 30.03 846 24.98 30.6 87.1 21 6.5 43.6
18:10 1017 30.03 846 24.98 30.7 87.3 22 6.9 44.4
18:15 1017 30.03 846 24.98 30.6 87 22 6.7 44
18:20 1017 30.03 846 24.98 30.6 87.1 22 6.8 44.2
18:25 1017 30.03 846 24.98 30.6 87 22 6.9 44.3
18:30 1017 30.03 846 24.98 30.5 86.8 21 6.1 43
18:35 1017 30.03 846 24.98 30.4 86.7 21 6.2 43.1
18:40 1017 30.03 846 24.98 30.3 86.5 21 5.8 42.4
18:45 1017 30.03 846 24.98 30.2 86.3 22 6.7 44.1
18:50 1017 30.03 846 24.98 29.9 85.9 23 6.9 44.4
18:55 1017 30.03 846 24.98 29.8 85.7 24 7.2 45
19:00 1017 30.03 846 24.98 29.7 85.5 24 7.4 45.4
19:05 1017 30.03 846 24.98 29.6 85.2 24 7.3 45.1
19:10 1017 30.03 846 24.98 29.6 85.3 24 7.4 45.4
19:15 1017 30.03 846 24.98 29.5 85.1 25 7.9 46.1
19:20 1017 30.03 847 25.01 29.2 84.5 26 7.8 46.1
19:25 1017 30.03 847 25.01 28.9 84 25 7 44.6
19:30 1017 30.03 847 25.01 28.7 83.7 25 7.2 44.9
19:35 1017 30.03 846 24.98 28.6 83.5 23 5.9 42.6
19:40 1017 30.03 846 24.98 28.5 83.3 22 4.8 40.6
19:45 1017 30.03 846 24.98 28.4 83.2 22 4.7 40.5
19:50 1017 30.03 846 24.98 28.4 83 21 4.5 40.2
19:55 1017 30.03 846 24.98 28.4 83.1 22 4.9 40.8
20:00 1017 30.03 846 24.98 28.3 82.9 22 4.5 40.2
20:05 1017 30.03 846 24.98 28.2 82.7 22 4.9 40.9
20:10 1017 30.03 846 24.98 28 82.4 22 4.5 40.1
20:15 1017 30.03 846 24.98 28.2 82.7 22 4.4 40
20:20 1017 30.03 847 25.01 27.9 82.3 22 4.3 39.8
20:25 1017 30.03 847 25.01 27.7 81.9 23 4.7 40.5
20:30 1017 30.03 847 25.01 27.6 81.7 22 4.3 39.7
20:35 1017 30.03 847 25.01 27.6 81.7 22 4.6 40.3
20:40 1017 30.03 847 25.01 27.3 81.2 23 4.8 40.6
20:45 1017 30.03 847 25.01 27.3 81.1 24 5 40.9
20:50 1017 30.03 847 25.01 27.4 81.3 23 4.7 40.5
20:55 1017 30.03 847 25.01 27.4 81.3 24 5.2 41.4
21:00 1017 30.03 847 25.01 27.3 81.2 24 5.3 41.6
21:05 1018 30.06 847 25.01 27.3 81.2 24 5 40.9
21:10 1018 30.06 847 25.01 27.3 81.1 24 5.1 41.1
21:15 1018 30.06 847 25.01 27.3 81.1 23 4.9 40.7
21:20 1018 30.06 847 25.01 27.2 80.9 24 4.9 40.8
21:25 1018 30.06 847 25.01 27.1 80.7 24 4.9 40.9
21:30 1018 30.06 847 25.01 27.1 80.7 23 4.3 39.7
21:35 1018 30.06 847 25.01 27 80.6 24 4.7 40.5
21:40 1018 30.06 847 25.01 26.9 80.3 23 4.4 40
21:45 1018 30.06 847 25.01 26.7 80.1 24 4.5 40.1
21:50 1018 30.06 847 25.01 26.6 79.8 23 4 39.2
21:55 1018 30.06 847 25.01 26.5 79.7 23 3.8 38.8
22:00 1018 30.06 847 25.01 26.5 79.6 23 4.2 39.5
22:05 1018 30.06 847 25.01 26.2 79.1 24 4.4 39.9
22:10 1017 30.03 847 25.01 26.2 79.1 22 3.2 37.7
22:15 1017 30.03 847 25.01 26.5 79.8 23 4.1 39.4
22:20 1017 30.03 847 25.01 26.2 79.2 22 3.1 37.5
22:25 1017 30.03 847 25.01 26.7 80 22 3.3 37.9
22:30 1018 30.06 847 25.01 26.7 80.1 22 3.8 38.8
22:35 1018 30.06 847 25.01 26.6 79.8 22 3.1 37.6
22:40 1018 30.06 847 25.01 26.4 79.6 22 3.5 38.4
22:45 1018 30.06 847 25.01 26.4 79.4 22 3.2 37.8
22:50 1018 30.06 847 25.01 26.4 79.5 22 3.3 37.9
22:55 1018 30.06 847 25.01 26.5 79.6 22 3.6 38.5
23:00 1018 30.06 847 25.01 26.5 79.7 23 3.9 39.1
23:05 1018 30.06 847 25.01 26.4 79.5 24 4.3 39.8
23:10 1018 30.06 847 25.01 26.2 79.2 24 4.5 40
23:15 1018 30.06 847 25.01 26.2 79.1 24 4.4 39.9
23:20 1018 30.06 847 25.01 26.5 79.8 24 4.6 40.3
23:25 1018 30.06 847 25.01 26.4 79.5 25 4.9 40.8
23:30 1018 30.06 847 25.01 26.2 79.1 25 4.9 40.8
23:35 1018 30.06 847 25.01 26.1 78.9 26 5.3 41.5
23:40 1018 30.06 847 25.01 25.9 78.5 26 5.3 41.6
23:45 1018 30.06 847 25.01 25.8 78.4 26 5.3 41.6
23:50 1018 30.06 847 25.01 25.6 78.2 27 5.6 42.1
23:55 1018 30.06 847 25.01 25.4 77.8 28 5.8 42.4
24:00 1018 30.06 847 25.01 25.3 77.5 28 5.7 42.2